Time;durP1;ratioP1;P1;durP2;ratioP2;P2;SDS_P1;SDS_P2;PMS_P1;PMS_P2;Temp;Humidity;BMP_temperature;BMP_pressure;BME280_temperature;BME280_humidity;BME280_pressure;Samples;Min_cycle;Max_cycle;Signal;HPM_P1;HPM_P2
2023/01/19 00:01:17;;;;;;;142.97;48.20;;;-0.30;99.90;;;;;;4404208;28;658207;-65
2023/01/19 00:04:05;;;;;;;146.57;45.10;;;-0.20;99.90;;;;;;4424560;28;657525;-65
2023/01/19 00:06:54;;;;;;;187.47;55.27;;;-0.20;99.90;;;;;;4401405;28;658453;-65
2023/01/19 00:09:41;;;;;;;160.47;47.30;;;-0.20;99.90;;;;;;4397224;28;657217;-65
2023/01/19 00:12:28;;;;;;;124.60;39.17;;;-0.10;99.90;;;;;;4423497;28;657998;-65
2023/01/19 00:15:15;;;;;;;80.32;28.20;;;-0.10;99.90;;;;;;4405357;28;658390;-66
2023/01/19 00:18:03;;;;;;;58.37;25.10;;;0.00;99.90;;;;;;4420408;28;657988;-65
2023/01/19 00:20:50;;;;;;;52.17;22.57;;;0.00;99.90;;;;;;4430785;28;655457;-65
2023/01/19 00:23:39;;;;;;;58.87;22.40;;;0.00;99.90;;;;;;4460641;28;655203;-65
2023/01/19 00:26:26;;;;;;;50.83;22.97;;;0.00;99.90;;;;;;4426090;28;656109;-65
2023/01/19 00:29:14;;;;;;;57.25;22.60;;;0.00;99.90;;;;;;4441491;28;656575;-65
2023/01/19 00:32:01;;;;;;;65.37;23.47;;;0.10;99.90;;;;;;4426739;28;655904;-65
2023/01/19 00:34:51;;;;;;;68.20;26.27;;;0.10;99.90;;;;;;4450623;28;655153;-65
2023/01/19 00:37:38;;;;;;;44.57;19.03;;;0.10;99.90;;;;;;4420435;28;656558;-65
2023/01/19 00:40:27;;;;;;;49.37;19.43;;;0.10;99.90;;;;;;4425703;28;656560;-66
2023/01/19 00:43:14;;;;;;;45.00;19.63;;;0.10;99.90;;;;;;4446801;28;655312;-65
2023/01/19 00:46:01;;;;;;;53.37;21.37;;;0.20;99.90;;;;;;4426049;28;655338;-65
2023/01/19 00:48:48;;;;;;;46.10;19.67;;;0.20;99.90;;;;;;4451411;28;656968;-65
2023/01/19 00:51:36;;;;;;;55.57;22.33;;;0.10;99.90;;;;;;4429435;28;656022;-65
2023/01/19 00:54:23;;;;;;;50.93;23.47;;;0.10;99.90;;;;;;4440623;28;656257;-65
2023/01/19 00:57:12;;;;;;;66.10;27.40;;;0.10;99.90;;;;;;4425493;28;655617;-66
2023/01/19 00:59:59;;;;;;;61.07;25.67;;;0.10;99.90;;;;;;4439875;28;655706;-65
2023/01/19 01:02:46;;;;;;;70.00;30.65;;;0.20;99.90;;;;;;4439192;28;657303;-65
2023/01/19 01:05:34;;;;;;;78.37;33.17;;;0.20;99.90;;;;;;4445741;28;655693;-65
2023/01/19 01:08:21;;;;;;;53.00;23.53;;;0.20;99.90;;;;;;4421951;28;655582;-65
2023/01/19 01:11:08;;;;;;;49.97;21.37;;;0.30;99.90;;;;;;4437114;28;656724;-65
2023/01/19 01:13:57;;;;;;;256.47;23.80;;;0.30;99.90;;;;;;4420531;28;655555;-65
2023/01/19 01:16:44;;;;;;;46.20;21.90;;;0.30;99.90;;;;;;4453210;28;656277;-65
2023/01/19 01:19:31;;;;;;;50.80;23.30;;;0.30;99.90;;;;;;4423835;28;655077;-65
2023/01/19 01:22:18;;;;;;;47.73;21.80;;;0.30;99.90;;;;;;4442012;28;656119;-65
2023/01/19 01:25:06;;;;;;;48.70;23.50;;;0.30;99.90;;;;;;4422428;28;656235;-65
2023/01/19 01:27:54;;;;;;;44.67;19.70;;;0.30;99.90;;;;;;4448463;28;656318;-65
2023/01/19 01:30:43;;;;;;;34.60;15.93;;;0.40;99.90;;;;;;4425731;28;655564;-65
2023/01/19 01:33:30;;;;;;;32.13;14.80;;;0.40;99.90;;;;;;4429626;28;655576;-66
2023/01/19 01:36:19;;;;;;;34.37;15.90;;;0.30;99.90;;;;;;4447416;28;656459;-65
2023/01/19 01:39:06;;;;;;;41.03;18.10;;;0.30;99.90;;;;;;4421385;28;655625;-65
2023/01/19 01:41:54;;;;;;;40.60;17.50;;;0.30;99.90;;;;;;4450961;28;656257;-65
2023/01/19 01:44:49;;;;;;;30.30;15.70;;;0.30;99.90;;;;;;4419585;28;655497;-65
2023/01/19 01:47:39;;;;;;;26.70;12.07;;;0.30;99.90;;;;;;4400706;28;656519;-65
2023/01/19 01:50:28;;;;;;;25.83;12.33;;;0.30;99.90;;;;;;4423474;28;655452;-65
2023/01/19 01:53:15;;;;;;;24.70;11.97;;;0.30;99.90;;;;;;4419545;28;655479;-66
2023/01/19 01:56:03;;;;;;;28.83;12.27;;;0.40;99.90;;;;;;4448111;28;657576;-65
2023/01/19 01:58:50;;;;;;;47.00;19.35;;;0.40;99.90;;;;;;4419941;28;655339;-65
2023/01/19 02:04:46;;;;;;;30.10;14.47;;;0.30;99.90;;;;;;4428158;28;655722;-65
2023/01/19 02:13:46;;;;;;;27.73;12.37;;;0.30;99.90;;;;;;4396569;28;655631;-65
2023/01/19 02:16:34;;;;;;;45.93;18.13;;;0.30;99.90;;;;;;4441263;28;656522;-65
2023/01/19 02:19:24;;;;;;;38.73;17.63;;;0.30;99.90;;;;;;4433825;28;656010;-65
2023/01/19 02:22:14;;;;;;;44.33;18.17;;;0.40;99.90;;;;;;4427529;28;655554;-65
2023/01/19 02:25:04;;;;;;;44.43;18.90;;;0.40;99.90;;;;;;4430131;28;655917;-65
2023/01/19 02:27:51;;;;;;;63.33;26.00;;;0.40;99.90;;;;;;4433033;28;655277;-65
2023/01/19 02:30:39;;;;;;;61.40;24.30;;;0.40;99.90;;;;;;4438108;28;655808;-65
2023/01/19 02:33:26;;;;;;;36.80;16.97;;;0.40;99.90;;;;;;4430848;28;657646;-65
2023/01/19 02:36:14;;;;;;;53.33;23.10;;;0.50;99.90;;;;;;4443542;28;656454;-65
2023/01/19 02:39:01;;;;;;;52.77;21.20;;;0.40;99.90;;;;;;4428397;28;655671;-65
2023/01/19 02:41:51;;;;;;;55.00;21.38;;;0.50;99.90;;;;;;4448579;28;656422;-65
2023/01/19 02:44:39;;;;;;;42.57;18.57;;;0.40;99.90;;;;;;4425166;28;657132;-65
2023/01/19 02:47:26;;;;;;;42.05;17.65;;;0.40;99.90;;;;;;4426089;28;656178;-65
2023/01/19 02:50:37;;;;;;;46.53;18.30;;;0.40;99.90;;;;;;4443391;28;656071;-65
2023/01/19 02:54:06;;;;;;;54.10;19.80;;;0.40;99.90;;;;;;4430168;28;655290;-65
2023/01/19 02:57:14;;;;;;;37.70;14.50;;;0.40;99.90;;;;;;4424773;28;655850;-65
2023/01/19 03:00:16;;;;;;;29.57;13.03;;;0.40;99.90;;;;;;4423717;28;655912;-65
2023/01/19 03:03:12;;;;;;;100.67;32.03;;;0.40;99.90;;;;;;4389776;28;656129;-66
2023/01/19 03:06:03;;;;;;;95.30;26.13;;;0.40;99.90;;;;;;4282895;28;656429;-66
2023/01/19 03:08:53;;;;;;;199.23;49.03;;;0.40;99.90;;;;;;4285422;28;655469;-66
2023/01/19 03:11:42;;;;;;;276.37;67.43;;;0.40;99.90;;;;;;4323555;28;656695;-65
2023/01/19 03:14:31;;;;;;;446.30;88.78;;;0.40;99.90;;;;;;4442730;28;656598;-65
2023/01/19 03:17:18;;;;;;;174.60;40.47;;;0.40;99.90;;;;;;4416470;28;657836;-65
2023/01/19 03:20:06;;;;;;;126.77;33.40;;;0.40;99.90;;;;;;4414430;28;656633;-65
2023/01/19 03:22:55;;;;;;;135.17;33.00;;;0.40;99.90;;;;;;4440469;28;656705;-65
2023/01/19 03:25:44;;;;;;;45.73;15.00;;;0.40;99.90;;;;;;4423454;28;658669;-65
2023/01/19 03:28:31;;;;;;;31.00;12.60;;;0.40;99.90;;;;;;4419749;28;655288;-65
2023/01/19 03:31:22;;;;;;;50.33;16.30;;;0.30;99.90;;;;;;4445641;28;655996;-65
2023/01/19 03:34:10;;;;;;;64.90;19.67;;;0.40;99.90;;;;;;4424698;28;656116;-64
2023/01/19 03:36:59;;;;;;;62.87;20.40;;;0.40;99.90;;;;;;4410981;28;656483;-64
2023/01/19 03:39:46;;;;;;;57.37;21.00;;;0.30;99.90;;;;;;4426924;28;655710;-65
2023/01/19 03:42:33;;;;;;;34.83;13.27;;;0.30;99.90;;;;;;4445082;28;655989;-65
2023/01/19 03:45:21;;;;;;;69.37;22.60;;;0.30;99.90;;;;;;4428566;28;656368;-65
2023/01/19 03:48:10;;;;;;;71.53;20.38;;;0.30;99.90;;;;;;4446627;28;656479;-64
2023/01/19 03:50:57;;;;;;;94.63;29.93;;;0.30;99.90;;;;;;4425989;28;656363;-65
2023/01/19 03:53:44;;;;;;;48.73;17.67;;;0.30;99.90;;;;;;4448994;28;655228;-65
2023/01/19 03:56:31;;;;;;;90.73;25.73;;;0.30;99.90;;;;;;4426655;28;655721;-65
2023/01/19 03:59:20;;;;;;;319.93;73.03;;;0.30;99.90;;;;;;4446304;28;655963;-64
2023/01/19 04:02:07;;;;;;;120.47;37.13;;;0.30;99.90;;;;;;4425513;28;657253;-65
2023/01/19 04:04:56;;;;;;;113.80;36.03;;;0.30;99.90;;;;;;4446979;28;656422;-65
2023/01/19 04:07:43;;;;;;;249.73;61.13;;;0.30;99.90;;;;;;4416841;28;657630;-64
2023/01/19 04:10:30;;;;;;;198.70;52.57;;;0.30;99.90;;;;;;4423117;28;657382;-65
2023/01/19 04:13:18;;;;;;;125.00;40.23;;;0.30;99.90;;;;;;4442682;28;658000;-65
2023/01/19 04:16:06;;;;;;;148.77;45.23;;;0.30;99.90;;;;;;4433963;28;656996;-65
2023/01/19 04:18:53;;;;;;;170.50;48.27;;;0.20;99.90;;;;;;4452390;28;657501;-65
2023/01/19 04:21:42;;;;;;;133.87;45.77;;;0.20;99.90;;;;;;4422945;28;657126;-65
2023/01/19 04:24:29;;;;;;;78.00;31.97;;;0.30;99.90;;;;;;4440878;28;656870;-65
2023/01/19 04:27:17;;;;;;;99.97;27.17;;;0.30;99.90;;;;;;4422368;28;655326;-65
2023/01/19 04:30:04;;;;;;;68.90;21.80;;;0.20;99.90;;;;;;4441167;28;655033;-65
2023/01/19 04:32:52;;;;;;;77.10;24.80;;;0.10;99.90;;;;;;4420405;28;656153;-65
2023/01/19 04:35:41;;;;;;;67.35;22.05;;;0.10;99.90;;;;;;4449196;28;656391;-66
2023/01/19 04:38:29;;;;;;;44.80;17.10;;;0.20;99.90;;;;;;4424405;28;656206;-65
2023/01/19 04:41:17;;;;;;;37.20;14.97;;;0.20;99.90;;;;;;4423147;28;655689;-65
2023/01/19 04:44:04;;;;;;;42.63;17.43;;;0.20;99.90;;;;;;4441586;28;655640;-65
2023/01/19 04:46:52;;;;;;;61.10;23.30;;;0.20;99.90;;;;;;4425826;28;655374;-64
2023/01/19 04:49:39;;;;;;;48.57;16.47;;;0.30;99.90;;;;;;4443465;28;655445;-64
2023/01/19 04:52:33;;;;;;;59.80;19.43;;;0.30;99.90;;;;;;4422818;28;656116;-65
2023/01/19 04:55:22;;;;;;;35.87;14.43;;;0.30;99.90;;;;;;4402589;28;655556;-65
2023/01/19 04:58:09;;;;;;;24.43;9.87;;;0.20;99.90;;;;;;4441067;28;655947;-65
2023/01/19 05:00:56;;;;;;;15.53;8.27;;;0.30;99.90;;;;;;4418853;28;654677;-65
2023/01/19 05:03:44;;;;;;;16.53;8.23;;;0.30;99.90;;;;;;4441456;28;654898;-65
2023/01/19 05:06:31;;;;;;;21.57;8.00;;;0.30;99.90;;;;;;4429300;28;654737;-64
2023/01/19 05:09:18;;;;;;;16.70;8.38;;;0.30;99.90;;;;;;4447997;28;655237;-65
2023/01/19 05:12:07;;;;;;;16.43;8.00;;;0.40;99.90;;;;;;4423173;28;654351;-65
2023/01/19 05:14:54;;;;;;;18.30;8.23;;;0.30;99.90;;;;;;4441347;28;655234;-65
2023/01/19 05:17:41;;;;;;;14.83;6.97;;;0.30;99.90;;;;;;4420012;28;654738;-65
2023/01/19 05:20:29;;;;;;;16.87;7.60;;;0.30;99.90;;;;;;4444702;28;655007;-64
2023/01/19 05:23:16;;;;;;;14.60;6.73;;;0.40;99.90;;;;;;4419954;28;655035;-64
2023/01/19 05:26:03;;;;;;;14.48;7.28;;;0.40;99.90;;;;;;4442617;28;655324;-65
2023/01/19 05:28:52;;;;;;;19.07;7.23;;;0.40;99.90;;;;;;4424560;28;654321;-65
2023/01/19 05:31:39;;;;;;;13.73;7.35;;;0.40;99.90;;;;;;4447797;28;654973;-65
2023/01/19 05:34:26;;;;;;;18.60;7.47;;;0.40;99.90;;;;;;4420112;28;654999;-65
2023/01/19 05:37:14;;;;;;;20.07;7.23;;;0.40;99.90;;;;;;4448911;28;654920;-65
2023/01/19 05:40:01;;;;;;;17.20;7.40;;;0.40;99.90;;;;;;4426022;28;654391;-65
2023/01/19 05:42:48;;;;;;;11.70;6.80;;;0.40;99.90;;;;;;4444180;28;655266;-65
2023/01/19 05:45:38;;;;;;;14.30;7.77;;;0.50;99.90;;;;;;4427651;28;654547;-65
2023/01/19 05:48:25;;;;;;;17.73;8.57;;;0.50;99.90;;;;;;4446460;28;656414;-65
2023/01/19 05:51:14;;;;;;;12.83;7.03;;;0.40;99.90;;;;;;4448603;28;654872;-65
2023/01/19 05:54:01;;;;;;;11.77;6.90;;;0.40;99.90;;;;;;4431631;28;654497;-64
2023/01/19 05:56:48;;;;;;;17.37;7.63;;;0.40;99.90;;;;;;4452765;28;655174;-65
2023/01/19 05:59:35;;;;;;;16.53;7.27;;;0.40;99.90;;;;;;4428563;28;655670;-65
2023/01/19 06:02:27;;;;;;;19.80;7.50;;;0.40;99.90;;;;;;4444482;28;655438;-65
2023/01/19 06:05:14;;;;;;;13.47;6.60;;;0.40;99.90;;;;;;4424497;28;654615;-65
2023/01/19 06:08:01;;;;;;;15.00;7.17;;;0.40;99.90;;;;;;4425121;28;654978;-65
2023/01/19 06:10:49;;;;;;;17.03;7.07;;;0.40;99.90;;;;;;4441873;28;654952;-64
2023/01/19 06:13:38;;;;;;;12.77;6.90;;;0.40;99.90;;;;;;4427550;28;655783;-65
2023/01/19 06:16:25;;;;;;;12.30;7.20;;;0.40;99.90;;;;;;4430482;28;654621;-66
2023/01/19 06:19:14;;;;;;;12.63;6.87;;;0.50;99.90;;;;;;4446008;28;655410;-65
2023/01/19 06:22:02;;;;;;;18.03;7.50;;;0.50;99.90;;;;;;4424527;28;655383;-65
2023/01/19 06:24:49;;;;;;;12.63;6.13;;;0.50;99.90;;;;;;4446003;28;654540;-65
2023/01/19 06:27:36;;;;;;;15.83;6.87;;;0.50;99.90;;;;;;4429012;28;654587;-65
2023/01/19 06:30:23;;;;;;;17.20;7.00;;;0.40;99.90;;;;;;4447216;28;655257;-64
2023/01/19 06:33:10;;;;;;;14.67;6.70;;;0.30;99.90;;;;;;4428837;28;654216;-65
2023/01/19 06:35:59;;;;;;;18.67;8.50;;;0.40;99.90;;;;;;4442973;28;655862;-65
2023/01/19 06:38:46;;;;;;;18.87;9.13;;;0.30;99.90;;;;;;4425359;28;654695;-65
2023/01/19 06:41:34;;;;;;;63.40;27.47;;;0.40;99.90;;;;;;4447552;28;654675;-65
2023/01/19 06:44:21;;;;;;;42.72;20.38;;;0.40;99.90;;;;;;4418721;28;655582;-65
2023/01/19 06:47:08;;;;;;;34.00;16.07;;;0.40;99.90;;;;;;4444419;28;655184;-69
2023/01/19 06:49:56;;;;;;;31.70;15.13;;;0.50;99.90;;;;;;4423847;28;655632;-70
2023/01/19 06:52:44;;;;;;;23.50;10.20;;;0.30;99.90;;;;;;4446373;28;656999;-70
2023/01/19 06:55:34;;;;;;;20.90;8.83;;;0.40;99.90;;;;;;4428206;28;655615;-69
2023/01/19 06:58:21;;;;;;;26.77;10.30;;;0.40;99.90;;;;;;4415437;28;654529;-70
2023/01/19 07:01:08;;;;;;;24.00;10.67;;;0.40;99.90;;;;;;4433850;28;655849;-70
2023/01/19 07:03:56;;;;;;;24.00;10.23;;;0.50;99.90;;;;;;4420807;28;655925;-69
2023/01/19 07:06:43;;;;;;;20.90;10.80;;;0.50;99.90;;;;;;4442059;28;656724;-69
2023/01/19 07:09:32;;;;;;;33.83;15.13;;;0.50;99.90;;;;;;4424977;28;655613;-69
2023/01/19 07:12:19;;;;;;;78.23;30.30;;;0.60;99.90;;;;;;4447639;28;655021;-69
2023/01/19 07:15:08;;;;;;;67.33;30.57;;;0.60;99.90;;;;;;4422682;28;655501;-70
2023/01/19 07:17:58;;;;;;;79.40;35.40;;;0.60;99.90;;;;;;4421650;28;655196;-68
2023/01/19 07:20:48;;;;;;;87.77;38.27;;;0.70;99.90;;;;;;4435357;28;656140;-70
2023/01/19 07:23:36;;;;;;;87.93;39.67;;;0.70;99.90;;;;;;4434443;28;655836;-69
2023/01/19 07:26:26;;;;;;;82.30;36.23;;;0.70;99.90;;;;;;4440502;28;656632;-69
2023/01/19 07:29:14;;;;;;;70.70;33.70;;;0.80;99.90;;;;;;4421893;28;656060;-69
2023/01/19 07:32:01;;;;;;;67.03;28.37;;;0.80;99.90;;;;;;4423099;28;657120;-69
2023/01/19 07:34:48;;;;;;;75.60;29.50;;;0.80;99.90;;;;;;4446245;28;656188;-69
2023/01/19 07:37:35;;;;;;;66.63;27.83;;;0.90;99.90;;;;;;4420452;28;655477;-69
2023/01/19 07:40:22;;;;;;;56.47;25.43;;;0.90;99.90;;;;;;4450593;28;655850;-69
2023/01/19 07:43:12;;;;;;;55.77;26.17;;;0.90;99.90;;;;;;4439730;28;655582;-69
2023/01/19 07:45:59;;;;;;;63.13;28.73;;;1.00;99.90;;;;;;4446870;28;654872;-69
2023/01/19 07:48:47;;;;;;;75.13;34.63;;;1.00;99.90;;;;;;4421252;28;655347;-69
2023/01/19 07:51:35;;;;;;;86.40;39.53;;;1.10;99.90;;;;;;4445722;28;655840;-69
2023/01/19 07:54:22;;;;;;;65.40;33.00;;;1.10;99.90;;;;;;4418663;28;656369;-69
2023/01/19 07:57:09;;;;;;;60.03;29.57;;;1.10;99.90;;;;;;4438874;28;655656;-69
2023/01/19 07:59:58;;;;;;;60.73;29.60;;;1.10;99.90;;;;;;4424114;28;655425;-69
2023/01/19 08:02:48;;;;;;;62.25;29.42;;;1.10;99.90;;;;;;4428683;28;656131;-69
2023/01/19 08:05:35;;;;;;;56.73;27.30;;;1.20;99.90;;;;;;4420165;28;655878;-69
2023/01/19 08:08:23;;;;;;;60.77;29.17;;;1.20;99.90;;;;;;4443102;28;656082;-69
2023/01/19 08:11:10;;;;;;;65.57;27.57;;;1.30;99.90;;;;;;4432313;28;655192;-69
2023/01/19 08:13:57;;;;;;;59.47;26.33;;;1.20;99.90;;;;;;4445982;28;655438;-72
2023/01/19 08:16:46;;;;;;;53.53;26.30;;;1.20;99.90;;;;;;4450896;28;655126;-73
2023/01/19 08:19:33;;;;;;;54.93;26.17;;;1.20;99.90;;;;;;4424300;28;656083;-72
2023/01/19 08:22:21;;;;;;;55.00;25.73;;;1.30;99.90;;;;;;4425151;28;656117;-73
2023/01/19 08:25:09;;;;;;;55.50;25.67;;;1.20;99.90;;;;;;4442288;28;656307;-73
2023/01/19 08:27:56;;;;;;;49.60;24.87;;;1.20;99.90;;;;;;4418747;28;655913;-71
2023/01/19 08:30:43;;;;;;;54.30;25.63;;;1.30;99.90;;;;;;4442302;28;655357;-73
2023/01/19 08:33:32;;;;;;;55.73;26.10;;;1.30;99.90;;;;;;4425043;28;655235;-73
2023/01/19 08:36:19;;;;;;;51.10;24.90;;;1.30;99.90;;;;;;4444522;28;655396;-73
2023/01/19 08:39:06;;;;;;;50.03;24.87;;;1.30;99.90;;;;;;4420928;28;655492;-73
2023/01/19 08:41:54;;;;;;;47.17;24.00;;;1.20;99.90;;;;;;4441593;28;655920;-73
2023/01/19 08:44:41;;;;;;;53.43;25.07;;;1.30;99.90;;;;;;4422268;28;656141;-73
2023/01/19 08:47:29;;;;;;;54.60;24.90;;;1.40;99.90;;;;;;4442141;28;655870;-73
2023/01/19 08:50:18;;;;;;;48.67;23.37;;;1.40;99.90;;;;;;4421791;28;655379;-74
2023/01/19 08:53:06;;;;;;;47.50;22.83;;;1.40;99.90;;;;;;4433233;28;656334;-74
2023/01/19 08:55:56;;;;;;;42.77;20.83;;;1.40;99.90;;;;;;4442262;28;655846;-74
2023/01/19 08:58:44;;;;;;;37.93;16.33;;;1.40;99.90;;;;;;4418385;28;656327;-74
2023/01/19 09:01:31;;;;;;;33.57;15.23;;;1.40;99.90;;;;;;4421640;28;655634;-73
2023/01/19 09:04:18;;;;;;;30.47;15.77;;;1.30;99.90;;;;;;4444552;28;655779;-74
2023/01/19 09:07:07;;;;;;;36.63;16.77;;;1.40;99.90;;;;;;4430408;28;655885;-74
2023/01/19 09:09:54;;;;;;;35.13;15.87;;;1.40;99.90;;;;;;4442524;28;655582;-74
2023/01/19 09:12:42;;;;;;;29.95;15.77;;;1.50;99.90;;;;;;4306760;28;655613;-73
2023/01/19 09:15:29;;;;;;;33.10;15.23;;;1.50;99.90;;;;;;4300086;28;655427;-74
2023/01/19 09:18:17;;;;;;;29.33;14.23;;;1.50;99.90;;;;;;4283069;28;655260;-74
2023/01/19 09:21:05;;;;;;;31.63;14.93;;;1.50;99.90;;;;;;4397967;28;656153;-74
2023/01/19 09:23:56;;;;;;;34.20;15.17;;;1.60;99.90;;;;;;4444366;28;655269;-74
2023/01/19 09:26:43;;;;;;;32.90;16.33;;;1.70;99.90;;;;;;4421241;28;656452;-74
2023/01/19 09:29:31;;;;;;;33.13;15.90;;;1.70;99.90;;;;;;4419392;28;655500;-74
2023/01/19 09:32:18;;;;;;;34.23;16.37;;;1.70;99.90;;;;;;4446714;28;656251;-74
2023/01/19 09:35:06;;;;;;;33.70;15.97;;;1.80;99.90;;;;;;4421373;28;656083;-74
2023/01/19 09:37:53;;;;;;;30.60;14.83;;;1.90;99.90;;;;;;4443920;28;655794;-74
2023/01/19 09:40:43;;;;;;;33.03;15.30;;;1.80;99.90;;;;;;4424024;28;655907;-74
2023/01/19 09:43:35;;;;;;;31.50;16.47;;;1.90;99.90;;;;;;4425630;28;655248;-74
2023/01/19 09:46:25;;;;;;;32.73;17.20;;;2.10;99.90;;;;;;4419762;28;656257;-74
2023/01/19 09:49:13;;;;;;;34.60;18.07;;;2.10;99.90;;;;;;4416652;28;656627;-74
2023/01/19 09:52:00;;;;;;;38.88;18.70;;;2.10;99.90;;;;;;4418820;28;656196;-74
2023/01/19 09:54:51;;;;;;;39.30;19.30;;;2.10;99.90;;;;;;4443816;28;655887;-74
2023/01/19 09:57:40;;;;;;;42.40;21.20;;;2.00;99.90;;;;;;4423936;28;655284;-75
2023/01/19 10:00:27;;;;;;;44.20;21.20;;;1.90;99.90;;;;;;4419019;28;656469;-75
2023/01/19 10:03:15;;;;;;;41.27;19.87;;;1.90;99.90;;;;;;4444878;28;656078;-75
2023/01/19 10:06:02;;;;;;;46.90;22.97;;;2.00;99.90;;;;;;4415442;28;656058;-75
2023/01/19 10:08:54;;;;;;;46.00;22.83;;;2.00;99.90;;;;;;4440639;28;655826;-75
2023/01/19 10:11:44;;;;;;;50.77;24.27;;;2.00;99.90;;;;;;4425574;28;656058;-75
2023/01/19 10:14:40;;;;;;;56.78;25.83;;;2.00;99.90;;;;;;4429578;28;655791;-75
2023/01/19 10:17:35;;;;;;;61.13;27.60;;;2.00;99.90;;;;;;4417336;28;655861;-76
2023/01/19 10:20:26;;;;;;;55.13;27.27;;;2.00;99.90;;;;;;4417113;28;656294;-76
2023/01/19 10:23:21;;;;;;;58.27;26.73;;;2.00;99.90;;;;;;4413231;28;655912;-75
2023/01/19 10:26:13;;;;;;;58.83;27.60;;;2.00;99.90;;;;;;4418760;28;655542;-75
2023/01/19 10:29:02;;;;;;;55.20;26.73;;;2.00;99.90;;;;;;4416945;28;655137;-75
2023/01/19 10:31:51;;;;;;;61.40;28.23;;;2.00;99.90;;;;;;4445778;28;654923;-76
2023/01/19 10:34:40;;;;;;;57.70;26.80;;;2.00;99.90;;;;;;4422294;28;655823;-76
2023/01/19 10:37:29;;;;;;;58.60;28.27;;;2.10;99.90;;;;;;4420625;28;656060;-74
2023/01/19 10:40:22;;;;;;;62.37;28.70;;;2.10;99.90;;;;;;4425666;28;656156;-75
2023/01/19 10:43:35;;;;;;;64.60;29.17;;;2.00;99.90;;;;;;4421190;28;655436;-77
2023/01/19 10:46:25;;;;;;;62.63;27.93;;;1.90;99.90;;;;;;4421495;28;656181;-76
2023/01/19 10:49:24;;;;;;;62.00;28.67;;;1.90;99.90;;;;;;4420657;28;656928;-76
2023/01/19 10:52:20;;;;;;;59.40;27.40;;;1.90;99.90;;;;;;4421162;28;655367;-76
2023/01/19 10:55:08;;;;;;;68.03;30.00;;;1.90;99.90;;;;;;4418478;28;655916;-75
2023/01/19 10:57:55;;;;;;;58.47;28.57;;;1.90;99.90;;;;;;4431126;28;655192;-75
2023/01/19 11:00:43;;;;;;;63.93;29.57;;;1.80;99.90;;;;;;4438540;28;656057;-76
2023/01/19 11:03:31;;;;;;;64.50;30.53;;;1.60;99.90;;;;;;4419582;28;655564;-76
2023/01/19 11:06:28;;;;;;;68.03;31.17;;;1.50;99.90;;;;;;4448604;28;656548;-77
2023/01/19 11:09:17;;;;;;;75.40;32.37;;;1.40;99.90;;;;;;4406806;28;655825;-77
2023/01/19 11:12:04;;;;;;;63.70;30.53;;;1.50;99.90;;;;;;4439011;28;655597;-77
2023/01/19 11:14:52;;;;;;;66.23;29.90;;;1.50;99.90;;;;;;4417639;28;655516;-76
2023/01/19 11:17:39;;;;;;;65.30;30.63;;;1.30;99.90;;;;;;4444289;28;654689;-76
2023/01/19 11:20:28;;;;;;;66.27;27.27;;;1.30;99.90;;;;;;4424724;28;655917;-77
2023/01/19 11:23:25;;;;;;;59.93;26.83;;;1.30;99.90;;;;;;4425716;28;655939;-76
2023/01/19 11:26:15;;;;;;;73.07;28.97;;;1.40;99.90;;;;;;4404000;28;655725;-75
2023/01/19 11:29:03;;;;;;;64.10;28.70;;;1.40;99.90;;;;;;4422172;28;655904;-76
2023/01/19 11:31:50;;;;;;;72.15;28.65;;;1.50;99.90;;;;;;4418904;28;655449;-76
2023/01/19 11:34:38;;;;;;;67.97;27.67;;;1.50;99.90;;;;;;4440341;28;656918;-76
2023/01/19 11:37:27;;;;;;;63.03;27.60;;;1.60;99.90;;;;;;4421376;28;655486;-76
2023/01/19 11:40:18;;;;;;;66.77;26.40;;;1.60;99.90;;;;;;4443613;28;655530;-76
2023/01/19 11:43:05;;;;;;;504.87;38.00;;;1.50;99.90;;;;;;4426067;28;656473;-76
2023/01/19 11:45:52;;;;;;;66.80;27.77;;;1.50;99.90;;;;;;4441296;28;656547;-77
2023/01/19 11:48:42;;;;;;;64.63;28.00;;;1.50;99.90;;;;;;4433427;28;655684;-76
2023/01/19 11:51:34;;;;;;;63.27;26.37;;;1.50;99.90;;;;;;4447364;28;655526;-77
2023/01/19 11:54:23;;;;;;;67.20;27.90;;;1.20;99.90;;;;;;4425735;28;655724;-76
2023/01/19 11:57:13;;;;;;;62.40;27.53;;;1.30;99.90;;;;;;4421770;28;655839;-76
2023/01/19 12:00:02;;;;;;;63.20;26.20;;;1.30;99.90;;;;;;4424761;28;656284;-75
2023/01/19 12:02:49;;;;;;;62.27;26.60;;;1.30;99.90;;;;;;4436938;28;655343;-77
2023/01/19 12:05:36;;;;;;;58.70;27.03;;;1.20;99.90;;;;;;4426309;28;655366;-76
2023/01/19 12:08:25;;;;;;;58.87;26.57;;;1.30;99.90;;;;;;4445084;28;656469;-77
2023/01/19 12:11:15;;;;;;;55.80;25.47;;;1.30;99.90;;;;;;4425390;28;655672;-76
2023/01/19 12:14:03;;;;;;;55.70;24.73;;;1.30;99.90;;;;;;4417463;28;655979;-77
2023/01/19 12:16:51;;;;;;;61.53;24.70;;;1.20;99.90;;;;;;4420293;28;655580;-77
2023/01/19 12:19:42;;;;;;;57.10;24.40;;;1.20;99.90;;;;;;4447047;28;655897;-77
2023/01/19 12:22:29;;;;;;;58.27;25.27;;;1.20;99.90;;;;;;4420393;28;655890;-77
2023/01/19 12:25:20;;;;;;;55.67;24.70;;;1.20;99.90;;;;;;4429074;28;656669;-78
2023/01/19 12:28:07;;;;;;;56.87;25.10;;;1.20;99.90;;;;;;4418731;28;656180;-77
2023/01/19 12:30:56;;;;;;;59.03;24.23;;;1.00;99.90;;;;;;4447259;28;655104;-76
2023/01/19 12:33:43;;;;;;;54.75;24.83;;;1.00;99.90;;;;;;4426537;28;656131;-77
2023/01/19 12:36:38;;;;;;;52.23;22.03;;;1.00;99.90;;;;;;4425574;28;655962;-77
2023/01/19 12:39:25;;;;;;;53.50;20.50;;;0.90;99.90;;;;;;4400451;28;655466;-76
2023/01/19 12:42:14;;;;;;;51.07;23.00;;;0.90;99.90;;;;;;4432528;28;656782;-75
2023/01/19 12:45:06;;;;;;;54.50;23.07;;;0.90;99.90;;;;;;4424311;28;656064;-75
2023/01/19 12:47:55;;;;;;;51.07;22.07;;;1.00;99.90;;;;;;4423189;28;656113;-75
2023/01/19 12:50:42;;;;;;;47.50;22.07;;;1.00;99.90;;;;;;4421807;28;656607;-75
2023/01/19 12:53:30;;;;;;;53.27;22.60;;;1.00;99.90;;;;;;4451347;28;655657;-75
2023/01/19 12:56:18;;;;;;;54.95;23.05;;;1.00;99.90;;;;;;4423075;28;656921;-76
2023/01/19 12:59:06;;;;;;;53.63;22.30;;;1.00;99.90;;;;;;4421281;28;655239;-76
2023/01/19 13:02:32;;;;;;;51.53;22.93;;;1.00;99.90;;;;;;4445261;28;656410;-76
2023/01/19 13:05:24;;;;;;;54.93;21.43;;;1.00;99.90;;;;;;4422085;28;655457;-76
2023/01/19 13:08:19;;;;;;;50.43;22.07;;;1.00;99.90;;;;;;4417655;28;657649;-75
2023/01/19 13:11:17;;;;;;;51.37;22.13;;;0.80;99.90;;;;;;4426925;28;656933;-76
2023/01/19 13:14:33;;;;;;;47.63;20.50;;;0.90;99.90;;;;;;4421766;28;656338;-75
2023/01/19 13:17:34;;;;;;;50.37;20.37;;;0.90;99.90;;;;;;4398417;28;656343;-76
2023/01/19 13:20:26;;;;;;;54.03;20.90;;;0.90;99.90;;;;;;4423492;28;657324;-76
2023/01/19 13:23:21;;;;;;;51.80;20.73;;;0.90;99.90;;;;;;4416379;28;656662;-76
2023/01/19 13:26:12;;;;;;;54.87;21.17;;;0.90;99.90;;;;;;4421448;28;656014;-76
2023/01/19 13:29:05;;;;;;;54.20;21.83;;;1.00;99.90;;;;;;4436036;28;656951;-75
2023/01/19 13:32:01;;;;;;;53.60;22.00;;;1.00;99.90;;;;;;4420103;28;657415;-75
2023/01/19 13:34:51;;;;;;;43.90;20.27;;;1.00;99.90;;;;;;4415618;28;656760;-75
2023/01/19 13:37:40;;;;;;;49.93;20.63;;;1.00;99.90;;;;;;4416702;28;657042;-75
2023/01/19 13:40:33;;;;;;;52.50;21.92;;;1.00;99.90;;;;;;4423117;28;657401;-75
2023/01/19 13:43:23;;;;;;;50.13;21.33;;;0.80;99.90;;;;;;4399496;28;656907;-75
2023/01/19 13:46:11;;;;;;;49.63;21.20;;;0.90;99.90;;;;;;4422191;28;656707;-75
2023/01/19 13:48:59;;;;;;;51.37;20.50;;;0.90;99.90;;;;;;4441985;28;656792;-76
2023/01/19 13:51:52;;;;;;;45.10;19.87;;;0.90;99.90;;;;;;4417332;28;656361;-76
2023/01/19 13:54:49;;;;;;;48.77;20.90;;;0.80;99.90;;;;;;4418173;28;656341;-75
2023/01/19 13:57:40;;;;;;;47.37;19.20;;;0.80;99.90;;;;;;4416946;28;656371;-75
2023/01/19 14:00:28;;;;;;;50.23;21.57;;;0.80;99.90;;;;;;4414686;28;657214;-76
2023/01/19 14:03:20;;;;;;;50.40;22.23;;;0.70;99.90;;;;;;4435749;28;657068;-75
2023/01/19 14:06:20;;;;;;;48.00;21.03;;;0.70;99.90;;;;;;4416739;28;657402;-76
2023/01/19 14:09:18;;;;;;;41.70;17.17;;;0.80;99.90;;;;;;4395411;28;657012;-75
2023/01/19 14:12:10;;;;;;;44.70;19.53;;;0.80;99.90;;;;;;4402780;28;657002;-76
2023/01/19 14:14:58;;;;;;;41.33;17.90;;;0.80;99.90;;;;;;4424244;28;656514;-75
2023/01/19 14:17:46;;;;;;;45.17;18.50;;;0.60;99.90;;;;;;4431312;28;657072;-76
2023/01/19 14:20:35;;;;;;;47.70;20.50;;;0.60;99.90;;;;;;4451829;28;656952;-75
2023/01/19 14:23:43;;;;;;;43.13;18.90;;;0.50;99.90;;;;;;4420903;28;657290;-76
2023/01/19 14:26:41;;;;;;;50.40;20.07;;;0.60;99.90;;;;;;4402180;28;657154;-76
2023/01/19 14:29:30;;;;;;;44.10;18.30;;;0.60;99.90;;;;;;4421198;28;656956;-76